sensor_id;sensor_type;location;lat;lon;timestamp;pressure;altitude;pressure_sealevel;temperature;humidity
13553;BME280;6847;48.830;9.116;2023-01-30T00:00:06;98576.63;;;0.56;56.60
13553;BME280;6847;48.830;9.116;2023-01-30T00:02:51;98543.19;;;0.47;56.73
13553;BME280;6847;48.830;9.116;2023-01-30T00:05:36;98559.22;;;0.60;56.53
13553;BME280;6847;48.830;9.116;2023-01-30T00:08:24;98547.97;;;0.64;56.57
13553;BME280;6847;48.830;9.116;2023-01-30T00:11:14;98535.09;;;0.68;56.63
13553;BME280;6847;48.830;9.116;2023-01-30T00:14:00;98515.81;;;0.66;56.61
13553;BME280;6847;48.830;9.116;2023-01-30T00:16:46;98497.34;;;0.58;56.65
13553;BME280;6847;48.830;9.116;2023-01-30T00:19:32;98514.53;;;0.62;57.00
13553;BME280;6847;48.830;9.116;2023-01-30T00:22:17;98521.97;;;0.66;56.71
13553;BME280;6847;48.830;9.116;2023-01-30T00:25:05;98529.50;;;0.63;56.82
13553;BME280;6847;48.830;9.116;2023-01-30T00:27:58;98527.25;;;0.60;56.82
13553;BME280;6847;48.830;9.116;2023-01-30T00:30:47;98516.19;;;0.56;56.92
13553;BME280;6847;48.830;9.116;2023-01-30T00:33:32;98503.03;;;0.55;56.11
13553;BME280;6847;48.830;9.116;2023-01-30T00:36:17;98508.38;;;0.55;56.90
13553;BME280;6847;48.830;9.116;2023-01-30T00:39:04;98505.91;;;0.53;56.94
13553;BME280;6847;48.830;9.116;2023-01-30T00:41:54;98510.41;;;0.53;56.85
13553;BME280;6847;48.830;9.116;2023-01-30T00:44:57;98511.84;;;0.49;56.94
13553;BME280;6847;48.830;9.116;2023-01-30T00:48:00;98528.22;;;0.46;56.85
13553;BME280;6847;48.830;9.116;2023-01-30T00:50:45;98530.25;;;0.44;56.78
13553;BME280;6847;48.830;9.116;2023-01-30T00:53:32;98539.25;;;0.43;56.80
13553;BME280;6847;48.830;9.116;2023-01-30T00:56:18;98550.28;;;0.40;56.80
13553;BME280;6847;48.830;9.116;2023-01-30T00:59:07;98572.63;;;0.39;56.93
13553;BME280;6847;48.830;9.116;2023-01-30T01:01:54;98590.25;;;0.40;57.15
13553;BME280;6847;48.830;9.116;2023-01-30T01:04:40;98593.53;;;0.42;57.08
13553;BME280;6847;48.830;9.116;2023-01-30T01:07:29;98596.84;;;0.44;57.09
13553;BME280;6847;48.830;9.116;2023-01-30T01:10:18;98592.13;;;0.46;57.19
13553;BME280;6847;48.830;9.116;2023-01-30T01:13:03;98579.47;;;0.48;57.24
13553;BME280;6847;48.830;9.116;2023-01-30T01:15:51;98591.75;;;0.49;57.05
13553;BME280;6847;48.830;9.116;2023-01-30T01:18:36;98580.50;;;0.53;57.26
13553;BME280;6847;48.830;9.116;2023-01-30T01:21:22;98587.28;;;0.56;57.75
13553;BME280;6847;48.830;9.116;2023-01-30T01:24:11;98584.22;;;0.59;57.08
13553;BME280;6847;48.830;9.116;2023-01-30T01:26:59;98583.63;;;0.63;57.12
13553;BME280;6847;48.830;9.116;2023-01-30T01:29:47;98581.75;;;0.57;57.16
13553;BME280;6847;48.830;9.116;2023-01-30T01:32:34;98599.91;;;0.75;57.03
13553;BME280;6847;48.830;9.116;2023-01-30T01:35:19;98600.53;;;0.77;57.29
13553;BME280;6847;48.830;9.116;2023-01-30T01:38:05;98530.88;;;0.46;57.44
13553;BME280;6847;48.830;9.116;2023-01-30T01:40:50;98584.31;;;0.79;57.20
13553;BME280;6847;48.830;9.116;2023-01-30T01:44:02;98578.56;;;0.75;57.23
13553;BME280;6847;48.830;9.116;2023-01-30T01:46:50;98586.00;;;0.86;57.45
13553;BME280;6847;48.830;9.116;2023-01-30T01:49:41;98581.53;;;0.93;56.99
13553;BME280;6847;48.830;9.116;2023-01-30T01:52:28;98581.13;;;0.96;57.00
13553;BME280;6847;48.830;9.116;2023-01-30T01:55:14;98578.69;;;1.01;56.90
13553;BME280;6847;48.830;9.116;2023-01-30T01:58:05;98557.34;;;1.01;56.88
13553;BME280;6847;48.830;9.116;2023-01-30T02:00:57;98561.16;;;0.79;56.77
13553;BME280;6847;48.830;9.116;2023-01-30T02:03:46;98479.56;;;0.30;56.91
13553;BME280;6847;48.830;9.116;2023-01-30T02:06:35;98584.84;;;1.08;57.09
13553;BME280;6847;48.830;9.116;2023-01-30T02:09:21;98593.91;;;1.14;56.73
13553;BME280;6847;48.830;9.116;2023-01-30T02:12:06;98577.72;;;1.16;57.41
13553;BME280;6847;48.830;9.116;2023-01-30T02:14:55;98572.78;;;1.13;57.37
13553;BME280;6847;48.830;9.116;2023-01-30T02:17:41;98542.56;;;0.92;57.20
13553;BME280;6847;48.830;9.116;2023-01-30T02:20:40;98544.66;;;1.03;57.19
13553;BME280;6847;48.830;9.116;2023-01-30T02:24:08;98548.94;;;0.98;57.32
13553;BME280;6847;48.830;9.116;2023-01-30T02:27:14;98544.19;;;0.93;57.57
13553;BME280;6847;48.830;9.116;2023-01-30T02:33:30;98542.94;;;0.89;57.45
13553;BME280;6847;48.830;9.116;2023-01-30T02:36:25;98566.94;;;0.89;57.65
13553;BME280;6847;48.830;9.116;2023-01-30T02:39:21;98549.91;;;0.90;57.33
13553;BME280;6847;48.830;9.116;2023-01-30T02:42:16;98507.69;;;0.87;57.47
13553;BME280;6847;48.830;9.116;2023-01-30T02:45:10;98506.25;;;0.85;57.97
13553;BME280;6847;48.830;9.116;2023-01-30T02:51:58;98484.59;;;0.60;58.09
13553;BME280;6847;48.830;9.116;2023-01-30T02:54:45;98511.75;;;0.83;57.40
13553;BME280;6847;48.830;9.116;2023-01-30T02:57:30;98494.13;;;0.82;57.72
13553;BME280;6847;48.830;9.116;2023-01-30T03:00:16;98493.31;;;0.82;57.89
13553;BME280;6847;48.830;9.116;2023-01-30T03:03:27;98481.41;;;0.78;57.88
13553;BME280;6847;48.830;9.116;2023-01-30T03:06:30;98482.25;;;0.78;57.84
13553;BME280;6847;48.830;9.116;2023-01-30T03:09:24;98480.16;;;0.80;58.22
13553;BME280;6847;48.830;9.116;2023-01-30T03:12:17;98462.16;;;0.82;57.78
13553;BME280;6847;48.830;9.116;2023-01-30T03:15:10;98456.00;;;0.88;57.95
13553;BME280;6847;48.830;9.116;2023-01-30T03:17:58;98428.56;;;0.94;57.99
13553;BME280;6847;48.830;9.116;2023-01-30T03:20:47;98414.63;;;1.05;58.03
13553;BME280;6847;48.830;9.116;2023-01-30T03:23:34;98394.09;;;1.19;57.80
13553;BME280;6847;48.830;9.116;2023-01-30T03:26:23;98359.84;;;1.36;57.70
13553;BME280;6847;48.830;9.116;2023-01-30T03:29:10;98287.88;;;1.16;57.98
13553;BME280;6847;48.830;9.116;2023-01-30T03:31:57;98344.38;;;1.71;58.25
13553;BME280;6847;48.830;9.116;2023-01-30T03:34:44;98354.00;;;1.85;58.00
13553;BME280;6847;48.830;9.116;2023-01-30T03:37:30;98329.16;;;1.84;57.83
13553;BME280;6847;48.830;9.116;2023-01-30T03:40:17;98372.56;;;2.18;57.34
13553;BME280;6847;48.830;9.116;2023-01-30T03:43:05;98400.25;;;2.30;57.45
13553;BME280;6847;48.830;9.116;2023-01-30T03:45:51;98413.16;;;2.40;57.36
13553;BME280;6847;48.830;9.116;2023-01-30T03:48:38;98376.63;;;2.27;57.36
13553;BME280;6847;48.830;9.116;2023-01-30T03:51:24;98372.50;;;2.31;57.69
13553;BME280;6847;48.830;9.116;2023-01-30T03:54:09;98416.72;;;2.72;57.50
13553;BME280;6847;48.830;9.116;2023-01-30T03:56:54;98401.44;;;2.79;56.92
13553;BME280;6847;48.830;9.116;2023-01-30T03:59:41;98405.50;;;2.88;57.38
13553;BME280;6847;48.830;9.116;2023-01-30T04:03:33;98400.56;;;2.91;57.45
13553;BME280;6847;48.830;9.116;2023-01-30T04:06:16;98375.59;;;2.73;57.39
13553;BME280;6847;48.830;9.116;2023-01-30T04:09:01;98405.44;;;3.01;56.90
13553;BME280;6847;48.830;9.116;2023-01-30T04:11:46;98407.06;;;3.02;56.95
13553;BME280;6847;48.830;9.116;2023-01-30T04:14:32;98398.03;;;3.03;57.09
13553;BME280;6847;48.830;9.116;2023-01-30T04:17:22;98396.38;;;3.02;57.43
13553;BME280;6847;48.830;9.116;2023-01-30T04:20:08;98390.63;;;2.98;57.19
13553;BME280;6847;48.830;9.116;2023-01-30T04:22:54;98383.84;;;2.96;57.23
13553;BME280;6847;48.830;9.116;2023-01-30T04:25:39;98402.56;;;2.96;57.18
13553;BME280;6847;48.830;9.116;2023-01-30T04:28:26;98396.81;;;2.99;57.35
13553;BME280;6847;48.830;9.116;2023-01-30T04:31:13;98361.53;;;2.84;57.72
13553;BME280;6847;48.830;9.116;2023-01-30T04:34:01;98377.00;;;3.07;57.53
13553;BME280;6847;48.830;9.116;2023-01-30T04:36:46;98395.84;;;3.18;57.16
13553;BME280;6847;48.830;9.116;2023-01-30T04:39:32;98392.13;;;3.19;57.12
13553;BME280;6847;48.830;9.116;2023-01-30T04:42:18;98386.56;;;3.21;57.35
13553;BME280;6847;48.830;9.116;2023-01-30T04:45:06;98387.53;;;3.26;56.78
13553;BME280;6847;48.830;9.116;2023-01-30T04:47:52;98392.03;;;3.32;56.58
13553;BME280;6847;48.830;9.116;2023-01-30T04:50:40;98366.56;;;3.23;57.37
13553;BME280;6847;48.830;9.116;2023-01-30T04:53:28;98385.94;;;3.44;56.94
13553;BME280;6847;48.830;9.116;2023-01-30T04:56:13;98381.59;;;3.49;57.24
13553;BME280;6847;48.830;9.116;2023-01-30T04:58:59;98388.50;;;3.57;57.32
13553;BME280;6847;48.830;9.116;2023-01-30T05:01:45;98381.22;;;3.64;57.15
13553;BME280;6847;48.830;9.116;2023-01-30T05:04:33;98329.09;;;3.48;56.22
13553;BME280;6847;48.830;9.116;2023-01-30T05:07:30;98361.63;;;3.70;56.31
13553;BME280;6847;48.830;9.116;2023-01-30T05:10:23;98356.41;;;3.75;56.56
13553;BME280;6847;48.830;9.116;2023-01-30T05:13:11;98379.47;;;3.94;56.17
13553;BME280;6847;48.830;9.116;2023-01-30T05:15:57;98367.13;;;3.93;57.03
13553;BME280;6847;48.830;9.116;2023-01-30T05:18:44;98357.63;;;3.97;57.05
13553;BME280;6847;48.830;9.116;2023-01-30T05:21:30;98345.41;;;4.01;57.10
13553;BME280;6847;48.830;9.116;2023-01-30T05:24:17;98346.47;;;4.00;56.41
13553;BME280;6847;48.830;9.116;2023-01-30T05:27:02;98343.63;;;3.95;56.37
13553;BME280;6847;48.830;9.116;2023-01-30T05:29:53;98348.97;;;3.95;57.03
13553;BME280;6847;48.830;9.116;2023-01-30T05:32:38;98335.97;;;3.99;56.74
13553;BME280;6847;48.830;9.116;2023-01-30T05:35:23;98352.84;;;3.99;57.05
13553;BME280;6847;48.830;9.116;2023-01-30T05:38:09;98346.47;;;4.00;57.10
13553;BME280;6847;48.830;9.116;2023-01-30T05:40:59;98342.88;;;4.06;56.30
13553;BME280;6847;48.830;9.116;2023-01-30T05:43:48;98312.66;;;3.99;56.59
13553;BME280;6847;48.830;9.116;2023-01-30T05:46:35;98333.78;;;4.07;56.40
13553;BME280;6847;48.830;9.116;2023-01-30T05:49:20;98334.84;;;4.06;56.92
13553;BME280;6847;48.830;9.116;2023-01-30T05:52:07;98344.50;;;4.07;57.00
13553;BME280;6847;48.830;9.116;2023-01-30T05:54:53;98336.03;;;4.11;56.04
13553;BME280;6847;48.830;9.116;2023-01-30T05:57:39;98343.38;;;4.15;56.82
13553;BME280;6847;48.830;9.116;2023-01-30T06:00:25;98354.47;;;4.19;56.01
13553;BME280;6847;48.830;9.116;2023-01-30T06:03:10;98356.56;;;4.17;56.55
13553;BME280;6847;48.830;9.116;2023-01-30T06:05:55;98348.34;;;4.12;56.31
13553;BME280;6847;48.830;9.116;2023-01-30T06:08:40;98344.94;;;4.04;56.12
13553;BME280;6847;48.830;9.116;2023-01-30T06:11:26;98270.72;;;3.57;56.75
13553;BME280;6847;48.830;9.116;2023-01-30T06:14:13;98340.84;;;4.02;56.79
13553;BME280;6847;48.830;9.116;2023-01-30T06:16:58;98276.81;;;3.64;56.88
13553;BME280;6847;48.830;9.116;2023-01-30T06:19:43;98325.31;;;3.92;56.16
13553;BME280;6847;48.830;9.116;2023-01-30T06:22:30;98326.44;;;3.85;56.60
13553;BME280;6847;48.830;9.116;2023-01-30T06:25:15;98330.63;;;3.81;56.20
13553;BME280;6847;48.830;9.116;2023-01-30T06:28:01;98335.59;;;3.77;57.16
13553;BME280;6847;48.830;9.116;2023-01-30T06:30:49;98327.56;;;3.77;56.75
13553;BME280;6847;48.830;9.116;2023-01-30T06:33:35;98317.44;;;3.79;57.16
13553;BME280;6847;48.830;9.116;2023-01-30T06:36:21;98314.06;;;3.84;56.42
13553;BME280;6847;48.830;9.116;2023-01-30T06:39:06;98312.00;;;3.86;56.12
13553;BME280;6847;48.830;9.116;2023-01-30T06:41:52;98308.66;;;3.90;56.60
13553;BME280;6847;48.830;9.116;2023-01-30T06:44:37;98306.72;;;3.97;56.09
13553;BME280;6847;48.830;9.116;2023-01-30T06:47:23;98315.94;;;4.01;56.81
13553;BME280;6847;48.830;9.116;2023-01-30T06:50:10;98305.22;;;4.01;56.11
13553;BME280;6847;48.830;9.116;2023-01-30T06:52:57;98297.75;;;4.03;56.67
13553;BME280;6847;48.830;9.116;2023-01-30T06:55:42;98299.41;;;4.04;56.71
13553;BME280;6847;48.830;9.116;2023-01-30T06:58:28;98246.00;;;3.73;56.63
13553;BME280;6847;48.830;9.116;2023-01-30T07:01:13;98306.31;;;4.12;56.04
13553;BME280;6847;48.830;9.116;2023-01-30T07:04:00;98301.31;;;4.16;56.77
13553;BME280;6847;48.830;9.116;2023-01-30T07:06:45;98310.56;;;4.20;56.89
13553;BME280;6847;48.830;9.116;2023-01-30T07:09:30;98309.53;;;4.21;56.31
13553;BME280;6847;48.830;9.116;2023-01-30T07:12:15;98319.16;;;4.22;56.03
13553;BME280;6847;48.830;9.116;2023-01-30T07:15:05;98323.97;;;4.20;55.83
13553;BME280;6847;48.830;9.116;2023-01-30T07:21:19;98336.75;;;4.18;56.46
13553;BME280;6847;48.830;9.116;2023-01-30T07:24:05;98291.25;;;3.81;56.89
13553;BME280;6847;48.830;9.116;2023-01-30T07:26:51;98344.38;;;4.21;56.11
13553;BME280;6847;48.830;9.116;2023-01-30T07:29:36;98361.59;;;4.25;55.92
13553;BME280;6847;48.830;9.116;2023-01-30T07:32:22;98348.66;;;4.22;56.25
13553;BME280;6847;48.830;9.116;2023-01-30T07:35:08;98347.03;;;4.21;56.96
13553;BME280;6847;48.830;9.116;2023-01-30T07:37:57;98349.84;;;4.26;55.91
13553;BME280;6847;48.830;9.116;2023-01-30T07:40:45;98362.22;;;4.27;56.17
13553;BME280;6847;48.830;9.116;2023-01-30T07:43:30;98364.56;;;4.35;56.85
13553;BME280;6847;48.830;9.116;2023-01-30T07:46:16;98370.44;;;4.43;55.93
13553;BME280;6847;48.830;9.116;2023-01-30T07:49:02;98374.66;;;4.51;56.59
13553;BME280;6847;48.830;9.116;2023-01-30T07:51:49;98370.06;;;4.58;56.36
13553;BME280;6847;48.830;9.116;2023-01-30T07:54:36;98366.22;;;4.66;56.53
13553;BME280;6847;48.830;9.116;2023-01-30T07:57:22;98359.72;;;4.73;56.52
13553;BME280;6847;48.830;9.116;2023-01-30T08:00:08;98359.88;;;4.78;56.35
13553;BME280;6847;48.830;9.116;2023-01-30T08:02:55;98352.50;;;4.74;55.93
13553;BME280;6847;48.830;9.116;2023-01-30T08:05:41;98267.38;;;4.28;56.47
13553;BME280;6847;48.830;9.116;2023-01-30T08:08:26;98348.78;;;4.75;56.63
13553;BME280;6847;48.830;9.116;2023-01-30T08:11:14;98355.31;;;4.79;56.42
13553;BME280;6847;48.830;9.116;2023-01-30T08:14:02;98372.50;;;4.90;56.15
13553;BME280;6847;48.830;9.116;2023-01-30T08:16:51;98377.88;;;4.90;56.21
13553;BME280;6847;48.830;9.116;2023-01-30T08:19:36;98382.03;;;4.86;56.08
13553;BME280;6847;48.830;9.116;2023-01-30T08:22:23;98365.69;;;4.75;56.84
13553;BME280;6847;48.830;9.116;2023-01-30T08:25:08;98349.53;;;4.64;56.24
13553;BME280;6847;48.830;9.116;2023-01-30T08:27:57;98346.97;;;4.57;57.34
13553;BME280;6847;48.830;9.116;2023-01-30T08:30:43;98329.09;;;4.51;57.06
13553;BME280;6847;48.830;9.116;2023-01-30T08:33:29;98323.88;;;4.56;56.58
13553;BME280;6847;48.830;9.116;2023-01-30T08:36:14;98293.84;;;4.77;57.08
13553;BME280;6847;48.830;9.116;2023-01-30T08:39:02;98271.75;;;5.17;56.21
13553;BME280;6847;48.830;9.116;2023-01-30T08:41:50;98303.94;;;5.64;56.09
13553;BME280;6847;48.830;9.116;2023-01-30T08:44:40;98318.19;;;5.76;55.70
13553;BME280;6847;48.830;9.116;2023-01-30T08:47:25;98312.91;;;5.81;56.54
13553;BME280;6847;48.830;9.116;2023-01-30T08:50:11;98316.25;;;6.11;56.04
13553;BME280;6847;48.830;9.116;2023-01-30T08:53:02;98312.25;;;6.54;55.96
13553;BME280;6847;48.830;9.116;2023-01-30T08:55:49;98319.13;;;6.78;55.64
13553;BME280;6847;48.830;9.116;2023-01-30T08:58:35;98301.22;;;6.84;55.39
13553;BME280;6847;48.830;9.116;2023-01-30T09:01:23;98285.97;;;6.89;55.43
13553;BME280;6847;48.830;9.116;2023-01-30T09:04:09;98271.09;;;7.37;55.21
13553;BME280;6847;48.830;9.116;2023-01-30T09:06:58;98254.00;;;8.57;54.27
13553;BME280;6847;48.830;9.116;2023-01-30T09:09:46;98235.84;;;8.79;53.82
13553;BME280;6847;48.830;9.116;2023-01-30T09:12:33;98233.28;;;8.36;54.43
13553;BME280;6847;48.830;9.116;2023-01-30T09:15:28;98254.22;;;8.07;55.00
13553;BME280;6847;48.830;9.116;2023-01-30T09:18:21;98253.44;;;7.63;55.42
13553;BME280;6847;48.830;9.116;2023-01-30T09:21:08;98259.19;;;7.33;55.61
13553;BME280;6847;48.830;9.116;2023-01-30T09:23:55;98260.22;;;6.93;56.20
13553;BME280;6847;48.830;9.116;2023-01-30T09:26:40;98275.84;;;6.80;56.67
13553;BME280;6847;48.830;9.116;2023-01-30T09:29:28;98265.53;;;6.60;56.51
13553;BME280;6847;48.830;9.116;2023-01-30T09:32:15;98269.94;;;6.49;56.53
13553;BME280;6847;48.830;9.116;2023-01-30T09:35:08;98270.56;;;6.40;56.80
13553;BME280;6847;48.830;9.116;2023-01-30T09:37:58;98273.63;;;6.31;56.26
13553;BME280;6847;48.830;9.116;2023-01-30T09:40:53;98274.84;;;6.24;56.41
13553;BME280;6847;48.830;9.116;2023-01-30T09:43:52;98258.84;;;6.17;56.39
13553;BME280;6847;48.830;9.116;2023-01-30T09:46:47;98244.84;;;6.15;56.82
13553;BME280;6847;48.830;9.116;2023-01-30T09:49:55;98244.59;;;6.17;56.31
13553;BME280;6847;48.830;9.116;2023-01-30T09:52:56;98261.53;;;6.17;56.77
13553;BME280;6847;48.830;9.116;2023-01-30T09:55:45;98240.03;;;6.17;56.26
13553;BME280;6847;48.830;9.116;2023-01-30T09:58:40;98121.56;;;5.50;56.55
13553;BME280;6847;48.830;9.116;2023-01-30T10:01:31;98214.31;;;6.21;56.50
13553;BME280;6847;48.830;9.116;2023-01-30T10:04:48;98232.72;;;6.29;56.18
13553;BME280;6847;48.830;9.116;2023-01-30T10:07:45;98220.03;;;6.42;56.52
13553;BME280;6847;48.830;9.116;2023-01-30T10:10:44;98215.91;;;6.51;56.71
13553;BME280;6847;48.830;9.116;2023-01-30T10:13:43;98205.25;;;6.56;56.04
13553;BME280;6847;48.830;9.116;2023-01-30T10:16:36;98218.94;;;6.54;56.17
13553;BME280;6847;48.830;9.116;2023-01-30T10:19:43;98205.25;;;6.56;56.50
13553;BME280;6847;48.830;9.116;2023-01-30T10:22:43;98190.22;;;6.60;56.73
13553;BME280;6847;48.830;9.116;2023-01-30T10:25:32;98184.84;;;6.60;56.52
13553;BME280;6847;48.830;9.116;2023-01-30T10:28:26;98197.88;;;6.68;56.85
13553;BME280;6847;48.830;9.116;2023-01-30T10:31:14;98177.19;;;6.52;56.35
13553;BME280;6847;48.830;9.116;2023-01-30T10:34:02;98198.22;;;6.72;56.57
13553;BME280;6847;48.830;9.116;2023-01-30T10:36:51;98201.50;;;6.74;56.43
13553;BME280;6847;48.830;9.116;2023-01-30T10:39:43;98203.44;;;6.78;56.73
13553;BME280;6847;48.830;9.116;2023-01-30T10:42:34;98197.91;;;6.85;56.67
13553;BME280;6847;48.830;9.116;2023-01-30T10:45:31;98163.25;;;6.72;56.27
13553;BME280;6847;48.830;9.116;2023-01-30T10:48:41;98196.16;;;6.95;56.66
13553;BME280;6847;48.830;9.116;2023-01-30T10:51:36;98200.47;;;6.96;56.40
13553;BME280;6847;48.830;9.116;2023-01-30T10:54:27;98186.47;;;6.94;56.54
13553;BME280;6847;48.830;9.116;2023-01-30T10:57:22;98189.16;;;6.94;56.72
13553;BME280;6847;48.830;9.116;2023-01-30T11:00:18;98191.84;;;6.94;56.82
13553;BME280;6847;48.830;9.116;2023-01-30T11:03:20;98163.56;;;6.75;57.00
13553;BME280;6847;48.830;9.116;2023-01-30T11:06:09;98192.50;;;7.01;56.67
13553;BME280;6847;48.830;9.116;2023-01-30T11:09:02;98169.50;;;6.94;56.95
13553;BME280;6847;48.830;9.116;2023-01-30T11:11:50;98207.16;;;7.11;56.98
13553;BME280;6847;48.830;9.116;2023-01-30T11:14:49;98202.78;;;7.04;57.18
13553;BME280;6847;48.830;9.116;2023-01-30T11:17:39;98196.44;;;6.94;57.65
13553;BME280;6847;48.830;9.116;2023-01-30T11:20:28;98202.78;;;6.88;57.58
13553;BME280;6847;48.830;9.116;2023-01-30T11:23:23;98203.09;;;6.91;57.85
13553;BME280;6847;48.830;9.116;2023-01-30T11:26:23;98124.53;;;6.56;57.12
13553;BME280;6847;48.830;9.116;2023-01-30T11:29:26;98197.25;;;6.94;57.82
13553;BME280;6847;48.830;9.116;2023-01-30T11:32:18;98135.22;;;6.51;57.53
13553;BME280;6847;48.830;9.116;2023-01-30T11:35:19;98189.16;;;6.94;57.89
13553;BME280;6847;48.830;9.116;2023-01-30T11:38:20;98199.19;;;6.82;57.83
13553;BME280;6847;48.830;9.116;2023-01-30T11:41:17;98203.25;;;6.68;58.17
13553;BME280;6847;48.830;9.116;2023-01-30T11:44:08;98208.00;;;6.61;58.29
13553;BME280;6847;48.830;9.116;2023-01-30T11:46:57;98203.25;;;6.51;57.95
13553;BME280;6847;48.830;9.116;2023-01-30T11:49:45;98226.59;;;6.46;58.22
13553;BME280;6847;48.830;9.116;2023-01-30T11:52:40;98221.69;;;6.43;58.70
13553;BME280;6847;48.830;9.116;2023-01-30T11:55:32;98183.19;;;6.25;58.64
13553;BME280;6847;48.830;9.116;2023-01-30T11:58:20;98154.31;;;6.04;58.71
13553;BME280;6847;48.830;9.116;2023-01-30T12:01:08;98206.66;;;6.47;58.92
13553;BME280;6847;48.830;9.116;2023-01-30T12:03:54;98206.66;;;6.47;58.46
13553;BME280;6847;48.830;9.116;2023-01-30T12:06:42;98203.25;;;6.51;59.06
13553;BME280;6847;48.830;9.116;2023-01-30T12:09:30;98165.50;;;6.29;58.59
13553;BME280;6847;48.830;9.116;2023-01-30T12:12:35;98200.97;;;6.60;58.84
13553;BME280;6847;48.830;9.116;2023-01-30T12:15:24;98199.84;;;6.56;58.96
13553;BME280;6847;48.830;9.116;2023-01-30T12:18:15;98191.50;;;6.57;59.11
13553;BME280;6847;48.830;9.116;2023-01-30T12:21:08;98190.69;;;6.57;58.81
13553;BME280;6847;48.830;9.116;2023-01-30T12:24:07;98188.09;;;6.62;58.80
13553;BME280;6847;48.830;9.116;2023-01-30T12:26:57;98191.84;;;6.61;58.69
13553;BME280;6847;48.830;9.116;2023-01-30T12:29:58;98162.34;;;6.49;58.92
13553;BME280;6847;48.830;9.116;2023-01-30T12:32:45;98196.09;;;6.57;59.34
13553;BME280;6847;48.830;9.116;2023-01-30T12:35:42;98189.09;;;6.56;58.97
13553;BME280;6847;48.830;9.116;2023-01-30T12:38:43;98193.91;;;6.54;59.15
13553;BME280;6847;48.830;9.116;2023-01-30T12:41:43;98164.56;;;6.36;59.31
13553;BME280;6847;48.830;9.116;2023-01-30T12:44:46;98200.81;;;6.50;59.59
13553;BME280;6847;48.830;9.116;2023-01-30T12:51:33;98227.88;;;6.60;59.25
13553;BME280;6847;48.830;9.116;2023-01-30T12:54:38;98203.59;;;6.55;59.44
13553;BME280;6847;48.830;9.116;2023-01-30T12:57:31;98224.31;;;6.71;59.49
13553;BME280;6847;48.830;9.116;2023-01-30T13:00:39;98169.66;;;6.37;59.15
13553;BME280;6847;48.830;9.116;2023-01-30T13:03:37;98221.03;;;6.69;59.25
13553;BME280;6847;48.830;9.116;2023-01-30T13:06:42;98226.59;;;6.79;59.39
13553;BME280;6847;48.830;9.116;2023-01-30T13:09:49;98211.25;;;6.80;59.07
13553;BME280;6847;48.830;9.116;2023-01-30T13:12:54;98208.66;;;6.85;59.46
13553;BME280;6847;48.830;9.116;2023-01-30T13:15:55;98215.66;;;6.86;59.32
13553;BME280;6847;48.830;9.116;2023-01-30T13:18:47;98200.97;;;6.77;59.47
13553;BME280;6847;48.830;9.116;2023-01-30T13:21:43;98145.78;;;6.41;58.98
13553;BME280;6847;48.830;9.116;2023-01-30T13:24:42;98217.69;;;6.95;59.63
13553;BME280;6847;48.830;9.116;2023-01-30T13:27:35;98222.34;;;7.00;59.35
13553;BME280;6847;48.830;9.116;2023-01-30T13:30:25;98221.34;;;7.06;59.91
13553;BME280;6847;48.830;9.116;2023-01-30T13:33:19;98200.63;;;7.06;59.48
13553;BME280;6847;48.830;9.116;2023-01-30T13:36:12;98242.38;;;7.26;59.74
13553;BME280;6847;48.830;9.116;2023-01-30T13:39:02;98240.88;;;7.35;59.41
13553;BME280;6847;48.830;9.116;2023-01-30T13:41:52;98248.63;;;7.48;59.43
13553;BME280;6847;48.830;9.116;2023-01-30T13:44:41;98239.06;;;7.57;59.62
13553;BME280;6847;48.830;9.116;2023-01-30T13:47:43;98263.38;;;7.62;59.54
13553;BME280;6847;48.830;9.116;2023-01-30T13:50:41;98264.00;;;7.69;59.52
13553;BME280;6847;48.830;9.116;2023-01-30T13:53:34;98238.81;;;7.59;59.65
13553;BME280;6847;48.830;9.116;2023-01-30T13:56:30;98259.44;;;7.70;59.63
13553;BME280;6847;48.830;9.116;2023-01-30T13:59:29;98272.66;;;7.71;59.53
13553;BME280;6847;48.830;9.116;2023-01-30T14:02:24;98269.41;;;7.69;59.36
13553;BME280;6847;48.830;9.116;2023-01-30T14:05:12;98263.19;;;7.69;59.64
13553;BME280;6847;48.830;9.116;2023-01-30T14:08:10;98276.09;;;7.67;59.46
13553;BME280;6847;48.830;9.116;2023-01-30T14:10:58;98246.69;;;7.65;59.65
13553;BME280;6847;48.830;9.116;2023-01-30T14:13:52;98222.13;;;7.40;59.32
13553;BME280;6847;48.830;9.116;2023-01-30T14:16:43;98259.97;;;7.50;59.49
13553;BME280;6847;48.830;9.116;2023-01-30T14:19:54;98261.91;;;7.55;59.85
13553;BME280;6847;48.830;9.116;2023-01-30T14:22:49;98249.13;;;7.45;59.88
13553;BME280;6847;48.830;9.116;2023-01-30T14:25:52;98273.03;;;7.58;59.63
13553;BME280;6847;48.830;9.116;2023-01-30T14:28:45;98271.72;;;7.61;59.68
13553;BME280;6847;48.830;9.116;2023-01-30T14:31:51;98255.84;;;7.64;59.33
13553;BME280;6847;48.830;9.116;2023-01-30T14:34:40;98257.13;;;7.78;59.35
13553;BME280;6847;48.830;9.116;2023-01-30T14:37:51;98281.94;;;7.80;59.44
13553;BME280;6847;48.830;9.116;2023-01-30T14:41:16;98288.41;;;7.79;59.52
13553;BME280;6847;48.830;9.116;2023-01-30T14:47:40;98272.53;;;7.61;59.51
13553;BME280;6847;48.830;9.116;2023-01-30T14:50:29;98286.59;;;7.63;59.48
13553;BME280;6847;48.830;9.116;2023-01-30T14:53:15;98275.66;;;7.53;59.45
13553;BME280;6847;48.830;9.116;2023-01-30T14:56:04;98297.78;;;7.77;59.55
13553;BME280;6847;48.830;9.116;2023-01-30T14:58:50;98305.91;;;7.99;59.42
13553;BME280;6847;48.830;9.116;2023-01-30T15:01:55;98316.97;;;8.41;59.21
13553;BME280;6847;48.830;9.116;2023-01-30T15:04:44;98319.69;;;8.68;58.87
13553;BME280;6847;48.830;9.116;2023-01-30T15:07:36;98322.13;;;8.69;58.74
13553;BME280;6847;48.830;9.116;2023-01-30T15:10:37;98329.31;;;8.59;58.76
13553;BME280;6847;48.830;9.116;2023-01-30T15:13:52;98339.53;;;8.35;58.92
13553;BME280;6847;48.830;9.116;2023-01-30T15:16:54;98354.28;;;8.27;58.91
13553;BME280;6847;48.830;9.116;2023-01-30T15:20:10;98345.91;;;8.07;58.86
13553;BME280;6847;48.830;9.116;2023-01-30T15:23:13;98363.03;;;7.96;59.15
13553;BME280;6847;48.830;9.116;2023-01-30T15:26:13;98364.59;;;7.92;58.85
13553;BME280;6847;48.830;9.116;2023-01-30T15:29:24;98357.72;;;7.84;58.98
13553;BME280;6847;48.830;9.116;2023-01-30T15:32:15;98358.91;;;7.71;58.81
13553;BME280;6847;48.830;9.116;2023-01-30T15:35:21;98348.56;;;7.63;58.96
13553;BME280;6847;48.830;9.116;2023-01-30T15:38:16;98361.34;;;7.56;58.96
13553;BME280;6847;48.830;9.116;2023-01-30T15:41:08;98369.28;;;7.46;59.12
13553;BME280;6847;48.830;9.116;2023-01-30T15:44:06;98362.19;;;7.40;58.74
13553;BME280;6847;48.830;9.116;2023-01-30T15:47:24;98333.94;;;7.09;59.16
13553;BME280;6847;48.830;9.116;2023-01-30T15:50:16;98378.66;;;7.27;59.30